Dresden, Ohio
Current Conditions -  °F | °C
As of 10:53 AM on Thursday 29 Jan 2015 (Local Time) from KZZV Reporting Station
Unknown Precip Unknown Precip  
Wind Chill: 24°   Ceiling: 4600
Heat Index: 32°   Visibility: 5mi
Dew Point: 27°   Wind: 9mph
Humidity: 82%   Direction: 180°S
Pressure: 29.9"   Gusts: NA
Location:  40.12°N, 82.01°W
Report Text: KZZV 291553Z AUTO 18008KT 5SM UP SCT038 OVC046 00/M03 A2990 RMK AO2 RAE01B32E50UPB01E15B31E32B50 SLP135 P0004 T00001028
Loading
Personal Weather Stations






























Interactive Weather Map New forecast layout! Learn more

10-Day Weather Forecast

Advertisements
Track Severe Weather on mobile